createdAt,value
2019-05-07T00:00:43.582Z,1008.38
2019-05-07T00:01:42.317Z,1008.37
2019-05-07T00:02:42.808Z,1008.32
2019-05-07T00:03:42.118Z,1008.31
2019-05-07T00:04:46.493Z,1008.32
2019-05-07T00:05:42.818Z,1008.31
2019-05-07T00:06:43.436Z,1008.41
2019-05-07T00:07:42.501Z,1008.39
2019-05-07T00:08:44.610Z,1008.39
2019-05-07T00:09:43.008Z,1008.33
2019-05-07T00:10:42.449Z,1008.40
2019-05-07T00:11:42.585Z,1008.42
2019-05-07T00:12:43.125Z,1008.34
2019-05-07T00:13:44.120Z,1008.37
2019-05-07T00:14:43.014Z,1008.30
2019-05-07T00:15:47.362Z,1008.28
2019-05-07T00:16:42.244Z,1008.23
2019-05-07T00:17:42.906Z,1008.18
2019-05-07T00:18:42.946Z,1008.22
2019-05-07T00:19:43.191Z,1008.25
2019-05-07T00:20:42.292Z,1008.15
2019-05-07T00:21:42.273Z,1008.22
2019-05-07T00:22:41.979Z,1008.22
2019-05-07T00:23:43.312Z,1008.19
2019-05-07T00:24:42.712Z,1008.12
2019-05-07T00:25:42.183Z,1008.19
2019-05-07T00:26:46.227Z,1008.21
2019-05-07T00:27:42.718Z,1008.25
2019-05-07T00:28:43.228Z,1008.19
2019-05-07T00:29:42.890Z,1008.18
2019-05-07T00:30:42.457Z,1008.13
2019-05-07T00:31:41.972Z,1008.16
2019-05-07T00:32:42.421Z,1008.19
2019-05-07T00:33:43.283Z,1008.13
2019-05-07T00:34:42.470Z,1008.18
2019-05-07T00:35:42.873Z,1008.17
2019-05-07T00:36:42.089Z,1008.16
2019-05-07T00:37:46.105Z,1008.08
2019-05-07T00:38:42.721Z,1008.12
2019-05-07T00:39:42.396Z,1008.10
2019-05-07T00:40:42.558Z,1008.11
2019-05-07T00:41:42.687Z,1008.10
2019-05-07T00:42:42.128Z,1008.12
2019-05-07T00:43:42.881Z,1008.17
2019-05-07T00:44:42.245Z,1008.10
2019-05-07T00:45:42.097Z,1008.11
2019-05-07T00:46:42.723Z,1008.13
2019-05-07T00:47:42.561Z,1008.09
2019-05-07T00:48:45.979Z,1008.05
2019-05-07T00:49:42.585Z,1007.99
2019-05-07T00:50:42.061Z,1008.05
2019-05-07T00:51:42.436Z,1008.02
2019-05-07T00:52:42.886Z,1008.05
2019-05-07T00:53:42.390Z,1007.95
2019-05-07T00:54:42.233Z,1008.01
2019-05-07T00:55:42.297Z,1008.07
2019-05-07T00:56:42.903Z,1008.00
2019-05-07T00:57:42.824Z,1007.94
2019-05-07T00:58:42.800Z,1007.95
2019-05-07T00:59:45.865Z,1007.99
2019-05-07T01:00:42.038Z,1007.96
2019-05-07T01:01:43.057Z,1007.97
2019-05-07T01:02:42.950Z,1007.97
2019-05-07T01:03:42.442Z,1007.97
2019-05-07T01:04:42.263Z,1007.93
2019-05-07T01:05:43.002Z,1007.91
2019-05-07T01:06:42.435Z,1007.95
2019-05-07T01:07:41.940Z,1007.94
2019-05-07T01:08:42.906Z,1007.93
2019-05-07T01:09:42.952Z,1007.91
2019-05-07T01:10:45.729Z,1007.87
2019-05-07T01:11:42.714Z,1007.93
2019-05-07T01:12:42.341Z,1007.92
2019-05-07T01:13:42.952Z,1007.93
2019-05-07T01:14:42.020Z,1007.84
2019-05-07T01:15:42.763Z,1007.87
2019-05-07T01:16:42.125Z,1007.92
2019-05-07T01:17:42.525Z,1007.90
2019-05-07T01:18:42.084Z,1007.85
2019-05-07T01:19:42.329Z,1007.83
2019-05-07T01:20:42.248Z,1007.91
2019-05-07T01:21:45.604Z,1007.89
2019-05-07T01:22:42.460Z,1007.88
2019-05-07T01:23:42.590Z,1007.90
2019-05-07T01:24:42.804Z,1007.80
2019-05-07T01:25:42.832Z,1007.87
2019-05-07T01:26:42.583Z,1007.90
2019-05-07T01:27:42.571Z,1007.84
2019-05-07T01:28:42.145Z,1007.84
2019-05-07T01:29:40.490Z,1007.88
2019-05-07T01:30:40.489Z,1007.83
2019-05-07T01:31:40.485Z,1007.85
2019-05-07T01:32:45.476Z,1007.94
2019-05-07T01:33:42.399Z,1007.87
2019-05-07T01:34:40.432Z,1007.89
2019-05-07T01:35:42.358Z,1007.83
2019-05-07T01:36:42.600Z,1007.81
2019-05-07T01:37:42.195Z,1007.82
2019-05-07T01:38:42.560Z,1007.86
2019-05-07T01:39:42.208Z,1007.86
2019-05-07T01:40:42.651Z,1007.87
2019-05-07T01:41:42.002Z,1007.83
2019-05-07T01:42:42.392Z,1007.82
2019-05-07T01:43:45.351Z,1007.83
2019-05-07T01:44:42.017Z,1007.89
2019-05-07T01:45:46.472Z,1007.91
2019-05-07T01:46:42.232Z,1007.88
2019-05-07T01:47:42.346Z,1007.87
2019-05-07T01:48:40.273Z,1007.88
2019-05-07T01:49:42.155Z,1007.86
2019-05-07T01:50:40.261Z,1007.89
2019-05-07T01:51:42.242Z,1007.92
2019-05-07T01:52:42.587Z,1007.91
2019-05-07T01:53:40.217Z,1007.86
2019-05-07T01:54:47.323Z,1007.83
2019-05-07T01:55:42.623Z,1007.86
2019-05-07T01:56:42.603Z,1007.94
2019-05-07T01:57:42.123Z,1007.94
2019-05-07T01:58:42.328Z,1007.95
2019-05-07T01:59:42.497Z,1007.99
2019-05-07T02:00:42.338Z,1007.96
2019-05-07T02:01:42.727Z,1008.00
2019-05-07T02:02:40.115Z,1007.98
2019-05-07T02:03:42.024Z,1007.97
2019-05-07T02:04:40.092Z,1007.96
2019-05-07T02:05:45.141Z,1008.02
2019-05-07T02:06:40.081Z,1008.02
2019-05-07T02:07:40.069Z,1007.98
2019-05-07T02:08:42.114Z,1007.94
2019-05-07T02:09:42.342Z,1008.06
2019-05-07T02:10:40.024Z,1008.04
2019-05-07T02:11:42.124Z,1007.99
2019-05-07T02:12:40.003Z,1008.04
2019-05-07T02:13:41.977Z,1007.97
2019-05-07T02:14:42.130Z,1008.04
2019-05-07T02:15:39.967Z,1007.98
2019-05-07T02:16:44.994Z,1008.01
2019-05-07T02:17:39.950Z,1007.94
2019-05-07T02:18:42.272Z,1007.94
2019-05-07T02:19:42.373Z,1007.97
2019-05-07T02:20:39.917Z,1007.95
2019-05-07T02:21:42.153Z,1007.89
2019-05-07T02:22:39.892Z,1007.88
2019-05-07T02:23:39.880Z,1007.85
2019-05-07T02:24:39.868Z,1007.83
2019-05-07T02:25:41.852Z,1007.87
2019-05-07T02:26:39.878Z,1007.84
2019-05-07T02:27:44.870Z,1007.88
2019-05-07T02:28:39.853Z,1007.89
2019-05-07T02:29:39.826Z,1007.89
2019-05-07T02:30:39.802Z,1007.82
2019-05-07T02:31:39.799Z,1007.95
2019-05-07T02:32:42.947Z,1007.86
2019-05-07T02:33:43.092Z,1007.89
2019-05-07T02:34:39.774Z,1007.90
2019-05-07T02:35:39.747Z,1007.92
2019-05-07T02:36:42.951Z,1007.88
2019-05-07T02:37:48.640Z,1007.86
2019-05-07T02:38:45.755Z,1007.83
2019-05-07T02:39:39.703Z,1007.79
2019-05-07T02:40:39.689Z,1007.79
2019-05-07T02:41:39.677Z,1007.91
2019-05-07T02:42:39.683Z,1007.82
2019-05-07T02:43:39.654Z,1007.79
2019-05-07T02:44:39.645Z,1007.82
2019-05-07T02:45:39.637Z,1007.81
2019-05-07T02:46:39.630Z,1007.77
2019-05-07T02:47:39.629Z,1007.80
2019-05-07T02:48:42.561Z,1007.83
2019-05-07T02:49:44.623Z,1007.91
2019-05-07T02:50:39.575Z,1007.90
2019-05-07T02:51:43.155Z,1007.87
2019-05-07T02:52:39.564Z,1007.86
2019-05-07T02:53:39.549Z,1007.83
2019-05-07T02:54:39.530Z,1007.91
2019-05-07T02:55:39.517Z,1007.85
2019-05-07T02:56:42.987Z,1007.87
2019-05-07T02:57:39.510Z,1007.87
2019-05-07T02:58:39.486Z,1007.86
2019-05-07T02:59:39.477Z,1007.87
2019-05-07T03:00:44.496Z,1007.94
2019-05-07T03:01:39.451Z,1007.87
2019-05-07T03:02:39.456Z,1007.89
2019-05-07T03:03:39.432Z,1007.90
2019-05-07T03:04:39.428Z,1007.95
2019-05-07T03:05:39.408Z,1007.96
2019-05-07T03:06:39.398Z,1007.92
2019-05-07T03:07:42.527Z,1007.95
2019-05-07T03:08:39.376Z,1007.96
2019-05-07T03:09:42.807Z,1007.90
2019-05-07T03:10:39.353Z,1007.91
2019-05-07T03:11:44.368Z,1007.90
2019-05-07T03:12:39.346Z,1007.88
2019-05-07T03:13:39.319Z,1007.92
2019-05-07T03:14:39.310Z,1007.91
2019-05-07T03:15:39.301Z,1007.93
2019-05-07T03:16:44.269Z,1007.85
2019-05-07T03:17:42.919Z,1007.88
2019-05-07T03:18:39.263Z,1007.86
2019-05-07T03:19:39.277Z,1007.94
2019-05-07T03:20:39.252Z,1007.91
2019-05-07T03:21:39.232Z,1007.86
2019-05-07T03:22:44.250Z,1007.92
2019-05-07T03:23:39.208Z,1007.88
2019-05-07T03:24:39.196Z,1007.89
2019-05-07T03:25:39.187Z,1007.87
2019-05-07T03:26:39.177Z,1007.92
2019-05-07T03:27:39.164Z,1007.94
2019-05-07T03:28:39.162Z,1008.00
2019-05-07T03:29:39.163Z,1007.97
2019-05-07T03:30:39.131Z,1007.98
2019-05-07T03:31:39.137Z,1007.96
2019-05-07T03:32:40.483Z,1007.94
2019-05-07T03:33:47.290Z,1007.89
2019-05-07T03:34:39.088Z,1007.92
2019-05-07T03:35:39.092Z,1007.89
2019-05-07T03:36:39.232Z,1007.88
2019-05-07T03:37:39.067Z,1007.88
2019-05-07T03:38:39.059Z,1007.87
2019-05-07T03:39:39.050Z,1007.89
2019-05-07T03:40:39.020Z,1007.89
2019-05-07T03:41:39.014Z,1007.95
2019-05-07T03:42:38.996Z,1007.94
2019-05-07T03:43:39.006Z,1007.90
2019-05-07T03:44:44.703Z,1007.90
2019-05-07T03:45:38.971Z,1007.85
2019-05-07T03:46:53.152Z,1007.91
2019-05-07T03:47:39.939Z,1007.88
2019-05-07T03:48:38.945Z,1007.92
2019-05-07T03:49:38.916Z,1007.92
2019-05-07T03:50:38.916Z,1007.97
2019-05-07T03:51:38.894Z,1007.89
2019-05-07T03:52:38.881Z,1007.88
2019-05-07T03:53:38.895Z,1007.93
2019-05-07T03:54:38.865Z,1007.92
2019-05-07T03:55:44.886Z,1008.00
2019-05-07T03:56:38.838Z,1007.94
2019-05-07T03:57:38.825Z,1007.97
2019-05-07T03:58:38.828Z,1007.96
2019-05-07T03:59:38.816Z,1007.95
2019-05-07T04:00:38.794Z,1007.93
2019-05-07T04:01:38.779Z,1007.92
2019-05-07T04:02:38.773Z,1007.87
2019-05-07T04:03:38.758Z,1007.94
2019-05-07T04:04:38.765Z,1007.96
2019-05-07T04:05:38.765Z,1007.92
2019-05-07T04:06:43.748Z,1007.94
2019-05-07T04:07:38.714Z,1007.91
2019-05-07T04:08:38.702Z,1007.95
2019-05-07T04:09:38.702Z,1007.90
2019-05-07T04:10:38.684Z,1007.98
2019-05-07T04:11:38.670Z,1007.98
2019-05-07T04:12:38.656Z,1007.92
2019-05-07T04:13:38.647Z,1007.90
2019-05-07T04:14:38.644Z,1007.95
2019-05-07T04:15:38.628Z,1007.86
2019-05-07T04:16:38.613Z,1007.89
2019-05-07T04:17:43.632Z,1007.91
2019-05-07T04:18:38.591Z,1007.97
2019-05-07T04:19:38.592Z,1007.99
2019-05-07T04:20:39.453Z,1007.97
2019-05-07T04:21:38.556Z,1008.01
2019-05-07T04:22:38.553Z,1008.04
2019-05-07T04:23:38.538Z,1008.06
2019-05-07T04:24:38.533Z,1008.07
2019-05-07T04:25:38.509Z,1008.06
2019-05-07T04:26:38.499Z,1008.01
2019-05-07T04:27:38.495Z,1008.01
2019-05-07T04:28:43.786Z,1008.01
2019-05-07T04:29:38.497Z,1008.06
2019-05-07T04:30:38.453Z,1008.04
2019-05-07T04:31:38.445Z,1008.04
2019-05-07T04:32:38.433Z,1008.06
2019-05-07T04:33:38.425Z,1008.03
2019-05-07T04:34:38.423Z,1008.16
2019-05-07T04:35:38.401Z,1008.02
2019-05-07T04:36:38.397Z,1008.01
2019-05-07T04:37:38.377Z,1008.01
2019-05-07T04:38:38.376Z,1008.01
2019-05-07T04:39:43.412Z,1008.03
2019-05-07T04:40:38.367Z,1008.04
2019-05-07T04:41:38.333Z,1008.06
2019-05-07T04:42:38.320Z,1008.00
2019-05-07T04:43:38.310Z,1008.02
2019-05-07T04:44:38.326Z,1008.01
2019-05-07T04:45:38.305Z,1007.98
2019-05-07T04:46:38.275Z,1007.94
2019-05-07T04:47:46.369Z,1007.95
2019-05-07T04:48:39.253Z,1007.95
2019-05-07T04:49:38.280Z,1007.94
2019-05-07T04:50:47.353Z,1007.96
2019-05-07T04:51:38.225Z,1007.99
2019-05-07T04:52:38.214Z,1008.04
2019-05-07T04:53:38.202Z,1007.95
2019-05-07T04:54:38.194Z,1008.07
2019-05-07T04:55:38.199Z,1008.02
2019-05-07T04:56:38.164Z,1008.07
2019-05-07T04:57:38.156Z,1008.09
2019-05-07T04:58:38.141Z,1008.04
2019-05-07T04:59:38.131Z,1008.05
2019-05-07T05:00:38.132Z,1008.03
2019-05-07T05:01:43.665Z,1008.05
2019-05-07T05:02:38.101Z,1008.02
2019-05-07T05:03:39.268Z,1008.02
2019-05-07T05:04:38.080Z,1007.99
2019-05-07T05:05:38.074Z,1007.93
2019-05-07T05:06:38.052Z,1007.97
2019-05-07T05:07:38.045Z,1007.98
2019-05-07T05:08:38.034Z,1007.97
2019-05-07T05:09:38.027Z,1007.95
2019-05-07T05:10:38.028Z,1008.00
2019-05-07T05:11:37.997Z,1007.90
2019-05-07T05:12:43.117Z,1007.95
2019-05-07T05:13:37.994Z,1007.95
2019-05-07T05:14:37.965Z,1008.00
2019-05-07T05:15:37.963Z,1007.94
2019-05-07T05:16:37.942Z,1007.95
2019-05-07T05:17:49.715Z,1007.96
2019-05-07T05:18:38.921Z,1007.94
2019-05-07T05:19:37.919Z,1007.96
2019-05-07T05:20:37.924Z,1007.97
2019-05-07T05:21:37.905Z,1007.98
2019-05-07T05:22:37.875Z,1007.93
2019-05-07T05:23:42.886Z,1007.98
2019-05-07T05:24:37.850Z,1007.96
2019-05-07T05:25:37.841Z,1007.94
2019-05-07T05:26:37.839Z,1007.94
2019-05-07T05:27:37.817Z,1007.91
2019-05-07T05:28:37.804Z,1007.88
2019-05-07T05:29:37.797Z,1008.01
2019-05-07T05:30:37.784Z,1007.87
2019-05-07T05:31:37.794Z,1007.90
2019-05-07T05:32:37.761Z,1007.91
2019-05-07T05:33:37.779Z,1007.91
2019-05-07T05:34:42.764Z,1007.92
2019-05-07T05:35:37.729Z,1007.92
2019-05-07T05:36:37.732Z,1007.98
2019-05-07T05:37:37.713Z,1007.98
2019-05-07T05:38:37.697Z,1008.03
2019-05-07T05:39:37.679Z,1007.95
2019-05-07T05:40:37.689Z,1007.97
2019-05-07T05:41:38.075Z,1007.92
2019-05-07T05:42:37.650Z,1007.92
2019-05-07T05:43:37.636Z,1007.97
2019-05-07T05:44:37.637Z,1007.96
2019-05-07T05:45:42.798Z,1007.99
2019-05-07T05:46:37.612Z,1008.05
2019-05-07T05:47:37.592Z,1007.98
2019-05-07T05:48:37.596Z,1008.03
2019-05-07T05:49:37.569Z,1007.99
2019-05-07T05:50:37.560Z,1008.02
2019-05-07T05:51:37.568Z,1008.03
2019-05-07T05:52:37.538Z,1008.03
2019-05-07T05:53:37.530Z,1008.03
2019-05-07T05:54:37.528Z,1007.95
2019-05-07T05:55:37.512Z,1007.95
2019-05-07T05:56:42.749Z,1008.00
2019-05-07T05:57:37.478Z,1007.97
2019-05-07T05:58:37.466Z,1007.98
2019-05-07T05:59:49.080Z,1007.98
2019-05-07T06:00:38.446Z,1007.98
2019-05-07T06:01:37.452Z,1007.95
2019-05-07T06:02:37.427Z,1007.96
2019-05-07T06:03:37.415Z,1007.92
2019-05-07T06:04:37.401Z,1007.97
2019-05-07T06:05:37.389Z,1007.98
2019-05-07T06:06:37.403Z,1007.96
2019-05-07T06:07:42.796Z,1007.93
2019-05-07T06:08:37.367Z,1007.93
2019-05-07T06:09:37.389Z,1007.96
2019-05-07T06:10:37.333Z,1007.92
2019-05-07T06:11:37.331Z,1007.98
2019-05-07T06:12:37.309Z,1007.94
2019-05-07T06:13:37.296Z,1007.86
2019-05-07T06:14:37.295Z,1007.95
2019-05-07T06:15:37.274Z,1007.95
2019-05-07T06:16:37.289Z,1007.92
2019-05-07T06:17:37.281Z,1007.93
2019-05-07T06:18:42.266Z,1007.93
2019-05-07T06:19:37.249Z,1008.01
2019-05-07T06:20:37.222Z,1007.95
2019-05-07T06:21:37.204Z,1007.97
2019-05-07T06:22:37.226Z,1007.90
2019-05-07T06:23:37.185Z,1007.99
2019-05-07T06:24:37.173Z,1007.92
2019-05-07T06:25:37.175Z,1008.03
2019-05-07T06:26:37.151Z,1008.02
2019-05-07T06:27:37.158Z,1008.05
2019-05-07T06:28:37.162Z,1008.00
2019-05-07T06:29:42.697Z,1007.97
2019-05-07T06:30:37.117Z,1008.06
2019-05-07T06:31:37.099Z,1008.13
2019-05-07T06:32:37.123Z,1008.06
2019-05-07T06:33:37.081Z,1008.07
2019-05-07T06:34:37.066Z,1008.08
2019-05-07T06:35:37.049Z,1008.04
2019-05-07T06:36:37.040Z,1008.06
2019-05-07T06:37:37.041Z,1008.13
2019-05-07T06:38:37.036Z,1008.10
2019-05-07T06:39:37.008Z,1008.12
2019-05-07T06:40:42.413Z,1008.04
2019-05-07T06:41:36.995Z,1008.10
2019-05-07T06:42:36.981Z,1008.14
2019-05-07T06:43:36.971Z,1008.18
2019-05-07T06:44:36.954Z,1008.06
2019-05-07T06:45:36.941Z,1008.00
2019-05-07T06:46:38.717Z,1008.10
2019-05-07T06:47:36.943Z,1008.11
2019-05-07T06:48:42.436Z,1008.10
2019-05-07T06:49:37.891Z,1008.15
2019-05-07T06:50:36.882Z,1008.10
2019-05-07T06:51:42.059Z,1008.06
2019-05-07T06:52:36.879Z,1008.07
2019-05-07T06:53:36.850Z,1008.04
2019-05-07T06:54:36.837Z,1008.05
2019-05-07T06:55:36.829Z,1007.99
2019-05-07T06:56:36.818Z,1008.01
2019-05-07T06:57:36.814Z,1008.04
2019-05-07T06:58:36.792Z,1008.00
2019-05-07T06:59:36.784Z,1007.91
2019-05-07T07:00:36.766Z,1007.91
2019-05-07T07:01:36.758Z,1007.98
2019-05-07T07:02:42.019Z,1008.03
2019-05-07T07:03:36.741Z,1008.00
2019-05-07T07:04:36.779Z,1008.02
2019-05-07T07:05:36.710Z,1007.96
2019-05-07T07:06:36.699Z,1007.91
2019-05-07T07:07:37.520Z,1007.97
2019-05-07T07:08:36.695Z,1007.95
2019-05-07T07:09:36.673Z,1007.95
2019-05-07T07:10:36.654Z,1007.93
2019-05-07T07:11:36.679Z,1007.95
2019-05-07T07:12:36.635Z,1008.00
2019-05-07T07:13:42.704Z,1007.95
2019-05-07T07:14:36.607Z,1007.97
2019-05-07T07:15:36.607Z,1007.98
2019-05-07T07:16:36.585Z,1007.91
2019-05-07T07:17:36.573Z,1007.92
2019-05-07T07:18:48.402Z,1008.02
2019-05-07T07:19:37.557Z,1007.97
2019-05-07T07:20:36.549Z,1007.98
2019-05-07T07:21:36.531Z,1007.95
2019-05-07T07:22:36.518Z,1008.01
2019-05-07T07:23:36.518Z,1007.93
2019-05-07T07:24:42.416Z,1007.96
2019-05-07T07:25:36.483Z,1007.95
2019-05-07T07:26:36.471Z,1007.91
2019-05-07T07:27:36.487Z,1007.94
2019-05-07T07:28:36.471Z,1007.89
2019-05-07T07:29:36.437Z,1007.93
2019-05-07T07:30:36.432Z,1007.89
2019-05-07T07:31:36.425Z,1007.91
2019-05-07T07:32:36.424Z,1007.87
2019-05-07T07:33:36.405Z,1007.85
2019-05-07T07:34:36.381Z,1007.86
2019-05-07T07:35:42.835Z,1007.83
2019-05-07T07:36:36.360Z,1007.84
2019-05-07T07:37:36.356Z,1007.80
2019-05-07T07:38:36.359Z,1007.88
2019-05-07T07:39:36.331Z,1007.83
2019-05-07T07:40:36.324Z,1007.90
2019-05-07T07:41:36.301Z,1007.77
2019-05-07T07:42:36.307Z,1007.85
2019-05-07T07:43:36.300Z,1007.86
2019-05-07T07:44:36.272Z,1007.86
2019-05-07T07:45:36.262Z,1007.87
2019-05-07T07:46:42.463Z,1007.85
2019-05-07T07:47:36.249Z,1007.85
2019-05-07T07:48:36.239Z,1007.86
2019-05-07T07:49:36.224Z,1007.81
2019-05-07T07:50:36.202Z,1007.75
2019-05-07T07:51:41.146Z,1007.79
2019-05-07T07:52:37.178Z,1007.74
2019-05-07T07:53:36.195Z,1007.77
2019-05-07T07:54:36.175Z,1007.77
2019-05-07T07:55:36.148Z,1007.81
2019-05-07T07:56:49.051Z,1007.81
2019-05-07T07:57:42.712Z,1007.79
2019-05-07T07:58:36.110Z,1007.77
2019-05-07T07:59:36.152Z,1007.80
2019-05-07T08:00:36.110Z,1007.77
2019-05-07T08:01:36.080Z,1007.78
2019-05-07T08:02:36.075Z,1007.69
2019-05-07T08:03:36.052Z,1007.78
2019-05-07T08:04:36.057Z,1007.71
2019-05-07T08:05:36.030Z,1007.70
2019-05-07T08:06:36.046Z,1007.68
2019-05-07T08:07:36.009Z,1007.65
2019-05-07T08:08:42.445Z,1007.69
2019-05-07T08:09:36.017Z,1007.70
2019-05-07T08:10:35.976Z,1007.66
2019-05-07T08:11:35.966Z,1007.73
2019-05-07T08:12:35.966Z,1007.65
2019-05-07T08:13:35.942Z,1007.68
2019-05-07T08:14:35.944Z,1007.65
2019-05-07T08:15:35.917Z,1007.67
2019-05-07T08:16:35.909Z,1007.66
2019-05-07T08:17:35.894Z,1007.66
2019-05-07T08:18:35.942Z,1007.64
2019-05-07T08:19:42.916Z,1007.62
2019-05-07T08:20:35.859Z,1007.59
2019-05-07T08:21:35.854Z,1007.62
2019-05-07T08:22:35.840Z,1007.60
2019-05-07T08:23:35.831Z,1007.58
2019-05-07T08:24:35.830Z,1007.62
2019-05-07T08:25:35.806Z,1007.61
2019-05-07T08:26:35.796Z,1007.59
2019-05-07T08:27:35.799Z,1007.59
2019-05-07T08:28:35.781Z,1007.59
2019-05-07T08:29:35.769Z,1007.57
2019-05-07T08:30:42.030Z,1007.59
2019-05-07T08:31:35.734Z,1007.56
2019-05-07T08:32:35.727Z,1007.59
2019-05-07T08:33:35.713Z,1007.63
2019-05-07T08:34:35.712Z,1007.60
2019-05-07T08:35:35.688Z,1007.57
2019-05-07T08:36:35.686Z,1007.61
2019-05-07T08:37:35.670Z,1007.52
2019-05-07T08:38:35.659Z,1007.48
2019-05-07T08:39:35.656Z,1007.52
2019-05-07T08:40:35.644Z,1007.55
2019-05-07T08:41:42.290Z,1007.47
2019-05-07T08:42:35.614Z,1007.48
2019-05-07T08:43:35.612Z,1007.44
2019-05-07T08:44:35.598Z,1007.48
2019-05-07T08:45:35.690Z,1007.50
2019-05-07T08:46:35.567Z,1007.49
2019-05-07T08:47:35.552Z,1007.51
2019-05-07T08:48:35.553Z,1007.39
2019-05-07T08:49:39.696Z,1007.38
2019-05-07T08:50:35.532Z,1007.43
2019-05-07T08:51:35.512Z,1007.47
2019-05-07T08:52:42.009Z,1007.45
2019-05-07T08:53:35.483Z,1007.41
2019-05-07T08:54:35.506Z,1007.43
2019-05-07T08:55:35.461Z,1007.43
2019-05-07T08:56:35.451Z,1007.42
2019-05-07T08:57:35.441Z,1007.44
2019-05-07T08:58:35.431Z,1007.48
2019-05-07T08:59:35.438Z,1007.40
2019-05-07T09:00:35.418Z,1007.45
2019-05-07T09:01:35.393Z,1007.38
2019-05-07T09:02:35.381Z,1007.42
2019-05-07T09:03:42.753Z,1007.33
2019-05-07T09:04:35.365Z,1007.29
2019-05-07T09:05:35.372Z,1007.36
2019-05-07T09:06:35.360Z,1007.28
2019-05-07T09:07:35.357Z,1007.30
2019-05-07T09:08:35.316Z,1007.26
2019-05-07T09:09:35.306Z,1007.26
2019-05-07T09:10:35.312Z,1007.21
2019-05-07T09:11:35.295Z,1007.16
2019-05-07T09:12:35.275Z,1007.23
2019-05-07T09:13:35.273Z,1007.32
2019-05-07T09:14:42.349Z,1007.24
2019-05-07T09:15:35.253Z,1007.23
2019-05-07T09:16:35.245Z,1007.21
2019-05-07T09:17:35.214Z,1007.16
2019-05-07T09:18:35.221Z,1007.15
2019-05-07T09:19:47.217Z,1007.18
2019-05-07T09:20:36.198Z,1007.13
2019-05-07T09:21:35.178Z,1007.15
2019-05-07T09:22:35.158Z,1007.09
2019-05-07T09:23:35.158Z,1007.18
2019-05-07T09:24:35.144Z,1007.14
2019-05-07T09:25:41.648Z,1007.17
2019-05-07T09:26:35.125Z,1007.14
2019-05-07T09:27:35.113Z,1007.04
2019-05-07T09:28:35.139Z,1007.03
2019-05-07T09:29:35.097Z,1007.12
2019-05-07T09:30:35.133Z,1007.07
2019-05-07T09:31:35.059Z,1007.12
2019-05-07T09:32:35.067Z,1007.06
2019-05-07T09:33:35.059Z,1006.98
2019-05-07T09:34:35.033Z,1006.98
2019-05-07T09:35:35.031Z,1007.01
2019-05-07T09:36:40.060Z,1007.03
2019-05-07T09:37:35.013Z,1007.06
2019-05-07T09:38:34.982Z,1007.01
2019-05-07T09:39:34.969Z,1007.02
2019-05-07T09:40:34.968Z,1007.00
2019-05-07T09:41:34.962Z,1007.06
2019-05-07T09:42:34.940Z,1007.04
2019-05-07T09:43:34.926Z,1007.06
2019-05-07T09:44:34.921Z,1007.05
2019-05-07T09:45:34.908Z,1007.02
2019-05-07T09:46:34.909Z,1007.00
2019-05-07T09:47:41.805Z,1006.99
2019-05-07T09:48:34.869Z,1006.99
2019-05-07T09:49:34.858Z,1006.98
2019-05-07T09:50:34.855Z,1006.94
2019-05-07T09:51:34.874Z,1006.95
2019-05-07T09:52:34.821Z,1006.86
2019-05-07T09:53:34.807Z,1006.88
2019-05-07T09:54:34.799Z,1006.85
2019-05-07T09:55:34.793Z,1006.82
2019-05-07T09:56:34.789Z,1006.83
2019-05-07T09:57:34.959Z,1006.84
2019-05-07T09:58:39.793Z,1006.79
2019-05-07T09:59:34.739Z,1006.79
2019-05-07T10:00:34.751Z,1006.80
2019-05-07T10:01:34.743Z,1006.79
2019-05-07T10:02:34.708Z,1006.79
2019-05-07T10:03:34.691Z,1006.82
2019-05-07T10:04:34.683Z,1006.86
2019-05-07T10:05:34.671Z,1006.79
2019-05-07T10:06:34.672Z,1006.77
2019-05-07T10:07:34.644Z,1006.81
2019-05-07T10:08:34.637Z,1006.76
2019-05-07T10:09:39.648Z,1006.71
2019-05-07T10:10:34.614Z,1006.77
2019-05-07T10:11:34.635Z,1006.82
2019-05-07T10:12:34.604Z,1006.72
2019-05-07T10:13:34.583Z,1006.73
2019-05-07T10:14:34.579Z,1006.78
2019-05-07T10:15:34.610Z,1006.79
2019-05-07T10:16:34.546Z,1006.71
2019-05-07T10:17:34.546Z,1006.73
2019-05-07T10:18:34.540Z,1006.69
2019-05-07T10:19:34.542Z,1006.76
2019-05-07T10:20:41.976Z,1006.72
2019-05-07T10:21:34.495Z,1006.75
2019-05-07T10:22:34.490Z,1006.71
2019-05-07T10:23:34.475Z,1006.71
2019-05-07T10:24:34.471Z,1006.67
2019-05-07T10:25:34.446Z,1006.56
2019-05-07T10:26:34.446Z,1006.66
2019-05-07T10:27:34.475Z,1006.61
2019-05-07T10:28:34.410Z,1006.59
2019-05-07T10:29:34.433Z,1006.55
2019-05-07T10:30:34.396Z,1006.57
2019-05-07T10:31:39.401Z,1006.55
2019-05-07T10:32:34.385Z,1006.53
2019-05-07T10:33:34.354Z,1006.54
2019-05-07T10:34:34.350Z,1006.51
2019-05-07T10:35:34.333Z,1006.58
2019-05-07T10:36:34.340Z,1006.64
2019-05-07T10:37:34.337Z,1006.50
2019-05-07T10:38:34.296Z,1006.61
2019-05-07T10:39:34.285Z,1006.54
2019-05-07T10:40:34.294Z,1006.54
2019-05-07T10:41:34.296Z,1006.58
2019-05-07T10:42:39.286Z,1006.50
2019-05-07T10:43:34.255Z,1006.55
2019-05-07T10:44:34.227Z,1006.48
2019-05-07T10:45:34.221Z,1006.48
2019-05-07T10:46:34.208Z,1006.44
2019-05-07T10:47:34.210Z,1006.46
2019-05-07T10:48:34.180Z,1006.46
2019-05-07T10:49:34.169Z,1006.43
2019-05-07T10:50:38.920Z,1006.43
2019-05-07T10:51:35.146Z,1006.35
2019-05-07T10:52:34.149Z,1006.34
2019-05-07T10:53:39.152Z,1006.39
2019-05-07T10:54:34.113Z,1006.39
2019-05-07T10:55:34.105Z,1006.33
2019-05-07T10:56:34.095Z,1006.28
2019-05-07T10:57:34.110Z,1006.43
2019-05-07T10:58:34.067Z,1006.38
2019-05-07T10:59:34.058Z,1006.44
2019-05-07T11:00:34.046Z,1006.40
2019-05-07T11:01:34.037Z,1006.36
2019-05-07T11:02:34.025Z,1006.43
2019-05-07T11:03:34.028Z,1006.34
2019-05-07T11:04:42.782Z,1006.33
2019-05-07T11:05:34.990Z,1006.34
2019-05-07T11:06:33.978Z,1006.29
2019-05-07T11:07:33.970Z,1006.31
2019-05-07T11:08:33.974Z,1006.33
2019-05-07T11:09:33.944Z,1006.34
2019-05-07T11:10:33.932Z,1006.26
2019-05-07T11:11:33.920Z,1006.32
2019-05-07T11:12:33.914Z,1006.28
2019-05-07T11:13:33.917Z,1006.21
2019-05-07T11:14:33.888Z,1006.30
2019-05-07T11:15:38.900Z,1006.23
2019-05-07T11:16:33.865Z,1006.24
2019-05-07T11:17:33.852Z,1006.20
2019-05-07T11:18:33.856Z,1006.12
2019-05-07T11:19:33.839Z,1006.11
2019-05-07T11:20:46.481Z,1006.15
2019-05-07T11:21:34.840Z,1006.00
2019-05-07T11:22:33.796Z,1006.04
2019-05-07T11:23:33.798Z,1006.03
2019-05-07T11:24:33.785Z,1006.01
2019-05-07T11:25:33.767Z,1005.97
2019-05-07T11:26:38.830Z,1005.99
2019-05-07T11:27:33.750Z,1006.01
2019-05-07T11:28:33.740Z,1005.94
2019-05-07T11:29:36.489Z,1005.95
2019-05-07T11:30:33.709Z,1005.87
2019-05-07T11:31:33.711Z,1005.90
2019-05-07T11:32:33.685Z,1005.83
2019-05-07T11:33:33.682Z,1005.90
2019-05-07T11:34:33.667Z,1005.88
2019-05-07T11:35:33.654Z,1005.85
2019-05-07T11:36:34.386Z,1005.82
2019-05-07T11:37:38.651Z,1005.84
2019-05-07T11:38:33.632Z,1005.84
2019-05-07T11:39:33.607Z,1005.78
2019-05-07T11:40:34.840Z,1005.79
2019-05-07T11:41:33.585Z,1005.82
2019-05-07T11:42:33.569Z,1005.86
2019-05-07T11:43:33.580Z,1005.81
2019-05-07T11:44:33.547Z,1005.77
2019-05-07T11:45:33.535Z,1005.82
2019-05-07T11:46:33.534Z,1005.85
2019-05-07T11:47:33.518Z,1005.78
2019-05-07T11:48:38.538Z,1005.79
2019-05-07T11:49:33.490Z,1005.76
2019-05-07T11:50:33.482Z,1005.84
2019-05-07T11:51:33.640Z,1005.90
2019-05-07T11:52:35.753Z,1005.77
2019-05-07T11:53:33.443Z,1005.71
2019-05-07T11:54:33.450Z,1005.72
2019-05-07T11:55:33.424Z,1005.75
2019-05-07T11:56:33.411Z,1005.80
2019-05-07T11:57:33.401Z,1005.81
2019-05-07T11:58:33.390Z,1005.71
2019-05-07T11:59:38.412Z,1005.74
2019-05-07T12:00:33.369Z,1005.76
2019-05-07T12:01:43.867Z,1005.87
2019-05-07T12:02:34.358Z,1005.58
2019-05-07T12:03:33.343Z,1005.64
2019-05-07T12:04:33.366Z,1005.56
2019-05-07T12:05:33.393Z,1005.81